ITY1617 LIRF-LIBR
Flight info
| Callsign | ITY1617 |
|---|---|
| Flight time | N/A |
| Altitude | 31000 |
| Route | SIPRO DCT TOPNO/N0376F190 L995 ROBOT |
| Aircraft | A20N/M-SDE2E3FGHIRWXY/LB1 |
Departure
| Time | N/A |
|---|---|
| Airport | Rome–Fiumicino Leonardo da Vinci International Airport (LIRF) |
Arrival
| Time | 2026-05-01 08:01 |
|---|---|
| Airport | Brindisi Airport (LIBR) |
| Time | Latitude | Longitude | Altitude | Speed | Heading |
|---|---|---|---|---|---|
| 2026-05-01 07:42 | 40.84678 | 16.71303 | 33928 ft | 503 kts | 101° |
| 2026-05-01 07:42 | 40.83894 | 16.75767 | 32474 ft | 513 kts | 101° |
| 2026-05-01 07:42 | 40.83089 | 16.80350 | 30841 ft | 522 kts | 101° |
| 2026-05-01 07:42 | 40.82272 | 16.84976 | 29189 ft | 528 kts | 102° |
| 2026-05-01 07:43 | 40.81443 | 16.89633 | 27559 ft | 527 kts | 102° |
| 2026-05-01 07:43 | 40.80613 | 16.94212 | 26589 ft | 507 kts | 102° |
| 2026-05-01 07:43 | 40.79020 | 17.03000 | 24450 ft | 478 kts | 102° |
| 2026-05-01 07:44 | 40.77518 | 17.11273 | 21992 ft | 456 kts | 101° |
| 2026-05-01 07:44 | 40.76078 | 17.19166 | 19533 ft | 436 kts | 101° |
| 2026-05-01 07:45 | 40.75382 | 17.22967 | 18347 ft | 425 kts | 101° |
| 2026-05-01 07:45 | 40.74701 | 17.26686 | 17173 ft | 417 kts | 101° |
| 2026-05-01 07:45 | 40.74036 | 17.30308 | 15986 ft | 408 kts | 101° |
| 2026-05-01 07:45 | 40.73378 | 17.33888 | 14920 ft | 397 kts | 101° |
| 2026-05-01 07:46 | 40.72736 | 17.37362 | 14424 ft | 381 kts | 101° |
| 2026-05-01 07:46 | 40.72120 | 17.40693 | 13957 ft | 372 kts | 101° |
| 2026-05-01 07:46 | 40.70970 | 17.47190 | 13004 ft | 358 kts | 98° |
| 2026-05-01 07:47 | 40.70587 | 17.50398 | 12577 ft | 353 kts | 95° |
| 2026-05-01 07:47 | 40.70258 | 17.53571 | 12097 ft | 350 kts | 95° |
| 2026-05-01 07:47 | 40.69938 | 17.56709 | 11636 ft | 347 kts | 95° |
| 2026-05-01 07:47 | 40.69615 | 17.59828 | 11191 ft | 344 kts | 95° |
| 2026-05-01 07:48 | 40.68987 | 17.65774 | 10718 ft | 308 kts | 95° |
| 2026-05-01 07:48 | 40.68696 | 17.68519 | 10576 ft | 296 kts | 95° |
| 2026-05-01 07:48 | 40.68417 | 17.71135 | 10442 ft | 286 kts | 95° |
| 2026-05-01 07:49 | 40.68145 | 17.73695 | 10316 ft | 279 kts | 95° |
| 2026-05-01 07:49 | 40.67616 | 17.78693 | 9942 ft | 276 kts | 95° |
| 2026-05-01 07:49 | 40.67352 | 17.81195 | 9557 ft | 278 kts | 95° |
| 2026-05-01 07:50 | 40.67081 | 17.83724 | 9209 ft | 278 kts | 95° |
| 2026-05-01 07:50 | 40.66540 | 17.88744 | 8546 ft | 277 kts | 95° |
| 2026-05-01 07:50 | 40.66272 | 17.91243 | 8225 ft | 275 kts | 95° |
| 2026-05-01 07:51 | 40.66000 | 17.93635 | 7912 ft | 274 kts | 98° |
| 2026-05-01 07:51 | 40.65372 | 17.96076 | 7579 ft | 277 kts | 114° |
| 2026-05-01 07:51 | 40.64378 | 17.98236 | 7264 ft | 275 kts | 121° |
| 2026-05-01 07:52 | 40.62571 | 18.01711 | 6738 ft | 270 kts | 121° |
| 2026-05-01 07:52 | 40.61517 | 18.03736 | 6433 ft | 267 kts | 120° |
| 2026-05-01 07:52 | 40.60473 | 18.05767 | 6114 ft | 264 kts | 120° |
| 2026-05-01 07:53 | 40.58451 | 18.09714 | 5501 ft | 260 kts | 120° |
| 2026-05-01 07:53 | 40.57453 | 18.11659 | 5269 ft | 254 kts | 120° |
| 2026-05-01 07:53 | 40.56491 | 18.13536 | 5191 ft | 241 kts | 120° |
| 2026-05-01 07:53 | 40.55562 | 18.15348 | 5121 ft | 237 kts | 120° |
| 2026-05-01 07:54 | 40.53705 | 18.18900 | 4883 ft | 240 kts | 128° |
| 2026-05-01 07:55 | 40.49424 | 18.18220 | 4020 ft | 238 kts | 252° |
| 2026-05-01 07:55 | 40.49919 | 18.14356 | 3584 ft | 216 kts | 310° |
| 2026-05-01 07:56 | 40.53027 | 18.10340 | 2974 ft | 198 kts | 322° |
| 2026-05-01 07:56 | 40.54904 | 18.08075 | 2929 ft | 169 kts | 322° |
| 2026-05-01 07:57 | 40.55736 | 18.07052 | 2680 ft | 158 kts | 322° |
| 2026-05-01 07:57 | 40.57233 | 18.05209 | 2275 ft | 141 kts | 323° |
| 2026-05-01 07:58 | 40.58660 | 18.03464 | 1905 ft | 139 kts | 324° |
| 2026-05-01 07:58 | 40.60076 | 18.01729 | 1537 ft | 139 kts | 324° |
| 2026-05-01 07:59 | 40.61483 | 18.00001 | 1176 ft | 138 kts | 325° |
| 2026-05-01 07:59 | 40.62881 | 17.98292 | 805 ft | 137 kts | 325° |
| 2026-05-01 08:00 | 40.65640 | 17.94922 | 67 ft | 133 kts | 327° |
| 2026-05-01 08:01 | 40.66797 | 17.93704 | 34 ft | 19 kts | 45° |
| 2026-05-01 08:01 | 40.66799 | 17.93805 | 33 ft | 9 kts | 136° |
| 2026-05-01 08:01 | 40.66751 | 17.93866 | 33 ft | 9 kts | 136° |
| 2026-05-01 08:02 | 40.66655 | 17.93990 | 33 ft | 9 kts | 136° |
| 2026-05-01 08:02 | 40.66606 | 17.94050 | 33 ft | 10 kts | 136° |
| 2026-05-01 08:03 | 40.66486 | 17.94194 | 32 ft | 13 kts | 138° |
| 2026-05-01 08:03 | 40.66407 | 17.94289 | 32 ft | 17 kts | 135° |
| 2026-05-01 08:03 | 40.66208 | 17.94533 | 32 ft | 21 kts | 137° |
| 2026-05-01 08:04 | 40.65981 | 17.94610 | 33 ft | 18 kts | 225° |
| 2026-05-01 08:04 | 40.65826 | 17.94351 | 37 ft | 17 kts | 233° |
| 2026-05-01 08:05 | 40.65722 | 17.94144 | 40 ft | 9 kts | 294° |
| 2026-05-01 08:05 | 40.65760 | 17.94093 | 40 ft | 4 kts | 322° |
| 2026-05-01 08:05 | 40.65781 | 17.94072 | 40 ft | 2 kts | 322° |
| 2026-05-01 08:06 | 40.65786 | 17.94066 | 40 ft | 0 kts | 322° |